Stations météo

réclame
Mon MeteoGroup
Hallands Vaderö, Suède (2605): Température de l'air & dewpoint: 15.01.2018 14:00:00 - 21.01.2018 14:00:00 (CET)Hallands Vaderö, Suède (2605): Vitesse du vent & gusts: 15.01.2018 14:00:00 - 21.01.2018 14:00:00 (CET)Hallands Vaderö, Suède (2605): Direction du vent: 15.01.2018 14:00:00 - 21.01.2018 14:00:00 (CET)Hallands Vaderö, Suède (2605): visibility: 15.01.2018 14:00:00 - 21.01.2018 14:00:00 (CET)Hallands Vaderö, Suède (2605): Quantités de précipitations: 15.01.2018 14:00:00 - 21.01.2018 14:00:00 (CET)
Date & Time tt [°C] td [°C] ff [km/h] ff [knt] fx [km/h] fx [knt] dd vv [km] rr [mm]
21.01.2018 14:00:00 - - - - - - - - -
21.01.2018 13:00:00 1,1 1,1 4 2 9 5 ENE 12 0,0
21.01.2018 12:00:00 1,0 1,0 3 2 9 5 ENE 15 0,0
21.01.2018 11:00:00 0,9 0,9 4 2 11 6 E 12 0,0
21.01.2018 10:00:00 0,9 0,9 3 2 11 6 ESE 11 0,0
21.01.2018 09:00:00 0,6 0,6 6 3 14 8 ENE 13 0,0
21.01.2018 08:00:00 0,7 0,7 6 4 14 8 E 17 0,0
21.01.2018 07:00:00 0,7 0,7 7 4 13 7 ENE 16 0,0
21.01.2018 06:00:00 0,8 0,8 8 4 13 7 E 18 0,0
21.01.2018 05:00:00 0,6 0,6 5 3 12 7 E 8 0,0
21.01.2018 04:00:00 0,4 0,4 7 4 11 6 E 7 0,0
21.01.2018 03:00:00 0,4 0,4 5 3 7 4 E 6 0,0
21.01.2018 02:00:00 0,4 0,4 3 2 9 5 E 8 0,0
21.01.2018 01:00:00 0,2 0,2 5 3 14 7 E 6 0,0
21.01.2018 00:00:00 0,4 0,4 6 3 15 8 ESE 6 0,0
20.01.2018 23:00:00 0,9 0,9 8 4 15 8 E 6 0,0
20.01.2018 22:00:00 0,9 0,9 9 5 14 8 E 6 0,0
20.01.2018 21:00:00 1,0 1,0 8 5 14 8 ESE 6 0,0
20.01.2018 20:00:00 1,1 1,1 8 4 14 8 ESE 4,9 0,0
20.01.2018 19:00:00 1,1 1,1 8 4 13 7 ESE 4,5 0,0
20.01.2018 18:00:00 0,9 0,9 6 4 19 10 SE 11 0,0
20.01.2018 17:00:00 0,7 0,7 8 4 19 10 SE 11 0,3
20.01.2018 16:00:00 1,7 1,7 8 5 16 9 ESE 7 0,0
20.01.2018 15:00:00 1,9 1,9 8 4 17 9 SE 6 0,0
20.01.2018 14:00:00 1,8 1,8 12 7 21 11 SSE 6 0,0
20.01.2018 13:00:00 1,5 1,4 13 7 21 11 SSE 4,4 0,1
20.01.2018 12:00:00 1,7 1,7 12 7 21 11 SE 4,8 0,0
20.01.2018 11:00:00 1,4 1,4 13 7 21 11 SE 4,5 0,0
20.01.2018 10:00:00 1,1 1,1 12 7 23 12 SE 6 0,0
20.01.2018 09:00:00 1,0 1,0 13 7 24 13 SE 5 0,0
20.01.2018 08:00:00 1,0 1,0 15 8 25 14 SE 3,9 0,0
20.01.2018 07:00:00 0,9 0,9 15 8 27 15 SE 3,7 0,0
20.01.2018 06:00:00 1,1 1,1 17 9 27 15 SSE 4,4 0,0
20.01.2018 05:00:00 1,1 1,1 16 9 24 13 SE 3,7 0,2
20.01.2018 04:00:00 1,2 1,2 14 8 23 13 SE 2,7 0,0
20.01.2018 03:00:00 0,9 0,9 15 8 23 12 SE 3,5 0,0
20.01.2018 02:00:00 1,0 1,0 13 7 24 13 SE 2,7 0,2
20.01.2018 01:00:00 1,1 1,1 16 8 24 13 SE 3,2 0,4
20.01.2018 00:00:00 1,1 1,1 16 9 24 13 SE 3,9 0,0
19.01.2018 23:00:00 1,2 1,2 14 8 25 14 SE 3,7 0,3
19.01.2018 22:00:00 1,1 1,1 18 10 25 14 SE 4,5 0,0
19.01.2018 21:00:00 1,0 1,0 13 7 22 12 SE 7 0,0
19.01.2018 20:00:00 0,9 0,9 14 8 22 12 SE 7 0,0
19.01.2018 19:00:00 0,8 0,8 12 6 20 11 SE 10 0,0
19.01.2018 18:00:00 0,3 0,3 12 6 24 13 SE 6 0,0
19.01.2018 17:00:00 0,4 -0,5 13 7 25 14 SSW 21 0,0
19.01.2018 16:00:00 1,1 1,1 20 11 25 14 SSW 14 0,0
19.01.2018 15:00:00 0,7 0,7 10 5 18 10 SE 5 0,2
19.01.2018 14:00:00 0,7 0,7 10 5 17 9 SE 16 0,0
19.01.2018 13:00:00 0,1 0,1 9 5 21 11 SE 4,6 0,7
19.01.2018 12:00:00 0,3 -1,0 15 8 21 11 SSE 2,0 0,1
19.01.2018 11:00:00 0,7 -1,7 8 4 14 8 SE 50 0,0
19.01.2018 10:00:00 0,4 -2,1 6 3 11 6 ESE 50 0,0
19.01.2018 09:00:00 -0,1 -0,9 6 3 11 6 E 48 0,0
19.01.2018 08:00:00 -0,3 -1,6 7 4 10 6 SE 50 0,0
19.01.2018 07:00:00 -0,1 -1,4 7 4 12 6 ESE 50 0,0
19.01.2018 06:00:00 -0,3 -1,0 9 5 12 6 SE 50 0,0
19.01.2018 05:00:00 -1,1 -1,1 8 5 11 6 ESE 40 0,0
19.01.2018 04:00:00 -0,4 -0,5 5 3 9 5 E 39 0,0
19.01.2018 03:00:00 0,2 -0,7 5 3 12 6 E 50 0,0
19.01.2018 02:00:00 -0,2 -1,3 6 4 14 8 ENE 46 0,0
19.01.2018 01:00:00 0,6 -0,9 9 5 14 8 E 50 0,0
19.01.2018 00:00:00 0,6 -0,5 7 4 14 8 ENE 50 0,0
18.01.2018 23:00:00 0,6 -0,5 8 4 21 11 E 46 0,0
18.01.2018 22:00:00 0,8 -0,5 8 4 24 13 E 50 0,0
18.01.2018 21:00:00 0,7 -0,3 15 8 24 13 NE 49 0,0
18.01.2018 20:00:00 0,9 0,0 16 9 27 15 NE 46 0,0
18.01.2018 19:00:00 1,0 -0,2 19 10 27 15 NE 50 0,0
18.01.2018 18:00:00 1,1 0,1 17 9 29 15 NE 44 0,0
18.01.2018 17:00:00 1,4 0,5 19 10 29 15 ENE 43 0,0
18.01.2018 16:00:00 1,2 1,2 20 11 29 15 ENE 36 0,0
18.01.2018 15:00:00 1,4 1,4 14 8 24 13 ENE 17 0,0
18.01.2018 14:00:00 1,4 1,3 14 8 23 13 E 14 0,0
18.01.2018 13:00:00 1,7 1,7 11 6 25 14 E 10 0,0
18.01.2018 12:00:00 1,5 1,5 15 8 25 14 SE 11 0,0
18.01.2018 11:00:00 1,5 1,5 11 6 26 14 ESE 8 0,0
18.01.2018 10:00:00 1,4 1,4 14 8 29 16 SE 12 0,0
18.01.2018 09:00:00 1,0 1,0 16 9 32 17 SE 9 0,0
18.01.2018 08:00:00 1,2 1,2 21 11 32 17 SSE 12 0,0
18.01.2018 07:00:00 1,0 1,0 21 11 36 20 SSE 8 0,1
18.01.2018 06:00:00 1,2 0,8 24 13 36 20 S 27 0,0
18.01.2018 05:00:00 1,6 1,3 23 13 35 19 S 17 0,0
18.01.2018 04:00:00 2,2 1,5 20 11 24 13 SW 24 0,0
18.01.2018 03:00:00 2,3 1,6 18 10 24 13 WSW 35 0,0
18.01.2018 02:00:00 2,1 0,3 16 9 25 13 W 40 0,0
18.01.2018 01:00:00 2,5 1,9 18 10 27 14 WSW 41 0,0
18.01.2018 00:00:00 2,4 1,8 19 10 28 15 WSW 40 0,0
17.01.2018 23:00:00 1,7 1,7 21 12 28 15 WSW - 0,0
17.01.2018 22:00:00 2,3 0,8 19 11 32 17 WSW 44 0,0
17.01.2018 21:00:00 2,3 1,1 21 11 34 18 WSW 27 0,0
17.01.2018 20:00:00 2,4 1,4 27 14 34 18 WSW 30 0,1
17.01.2018 19:00:00 1,5 1,5 24 13 32 17 WSW 6 0,0
17.01.2018 18:00:00 1,8 1,2 10 6 22 12 WSW 21 0,0
17.01.2018 17:00:00 2,2 1,0 16 9 27 15 W 27 0,0
17.01.2018 16:00:00 2,3 -0,3 20 11 27 15 WSW 50 0,0
17.01.2018 15:00:00 2,5 0,9 18 10 24 13 W 46 0,0
17.01.2018 14:00:00 2,7 0,4 13 7 28 15 WSW 50 0,0
17.01.2018 13:00:00 2,5 0,7 19 10 28 15 W 13 0,1
17.01.2018 12:00:00 2,6 1,0 15 8 29 16 W 37 0,0
17.01.2018 11:00:00 2,8 1,0 22 12 29 16 SW 22 0,0
17.01.2018 10:00:00 2,8 0,0 15 8 24 13 WSW 41 0,0
17.01.2018 09:00:00 2,4 1,2 16 8 26 14 W 20 0,0
17.01.2018 08:00:00 2,5 0,9 14 8 26 14 SW 25 0,0
17.01.2018 07:00:00 2,2 1,5 20 11 26 14 SSW 16 0,0
17.01.2018 06:00:00 2,3 0,4 7 4 30 16 W 29 0,0
17.01.2018 05:00:00 2,6 0,8 24 13 30 16 SW 27 0,0
17.01.2018 04:00:00 2,6 1,6 24 13 32 17 SW 25 0,0
17.01.2018 03:00:00 2,8 2,1 24 13 33 18 WSW 21 0,0
17.01.2018 02:00:00 2,7 2,3 27 15 33 18 WSW 19 0,0
17.01.2018 01:00:00 2,9 2,9 21 11 34 18 WSW 14 0,0
17.01.2018 00:00:00 2,7 2,3 22 12 34 18 WSW 27 0,0
16.01.2018 23:00:00 2,9 2,9 25 14 32 17 WSW 33 0,0
16.01.2018 22:00:00 2,6 2,6 23 12 31 17 W 4,1 0,0
16.01.2018 21:00:00 2,6 2,6 23 13 35 19 WSW 27 0,0
16.01.2018 20:00:00 2,2 2,2 21 11 35 19 SSW 7 0,0
16.01.2018 19:00:00 2,8 2,8 18 10 32 17 S 21 0,0
16.01.2018 18:00:00 2,9 2,0 21 11 35 19 SSW 21 0,0
16.01.2018 17:00:00 3,1 2,5 22 12 37 20 SSW 18 0,0
16.01.2018 16:00:00 3,1 1,9 28 15 42 23 SSW 24 0,0
16.01.2018 15:00:00 3,5 2,8 26 14 42 23 SSW 21 0,0
16.01.2018 14:00:00 3,5 3,2 30 16 46 25 SSW 15 0,0
16.01.2018 13:00:00 3,4 3,0 33 18 46 25 SSW 16 0,0
16.01.2018 12:00:00 3,6 3,2 31 17 50 27 S 15 0,0
16.01.2018 11:00:00 3,7 3,6 37 20 50 27 SSW 13 0,0
16.01.2018 10:00:00 3,5 3,5 34 18 52 28 S 18 0,0
16.01.2018 09:00:00 3,6 3,6 35 19 52 28 S 13 0,2
16.01.2018 08:00:00 3,2 3,2 32 18 67 36 S 13 0,1
16.01.2018 07:00:00 2,2 2,2 41 22 72 39 SSE 7 0,2
16.01.2018 06:00:00 0,7 0,7 48 26 72 39 SSE 4,0 1,0
16.01.2018 05:00:00 1,0 1,0 49 26 73 39 SSE 4,4 0,8
16.01.2018 04:00:00 1,0 1,0 51 28 73 39 SSE 4,8 0,7
16.01.2018 03:00:00 0,7 0,7 44 24 72 39 SE 2,5 0,7
16.01.2018 02:00:00 1,2 1,2 44 24 68 37 SSE 6 0,1
16.01.2018 01:00:00 0,9 0,9 40 22 73 40 SE 3,9 0,2
16.01.2018 00:00:00 0,8 0,8 43 23 73 40 SSE 3,6 0,3
15.01.2018 23:00:00 0,8 0,8 44 24 71 38 SSE 3,6 0,4
15.01.2018 22:00:00 0,7 0,7 42 23 68 37 SSE 3,5 0,3
15.01.2018 21:00:00 0,8 0,8 44 24 68 37 SSE 4,2 0,1
15.01.2018 20:00:00 1,0 0,6 42 23 71 38 SSE 6 0,3
15.01.2018 19:00:00 0,7 -0,5 46 25 72 39 SSE 3,3 0,1
15.01.2018 18:00:00 1,0 -1,6 45 24 72 39 SE 4,9 0,1
15.01.2018 17:00:00 0,8 -2,3 45 24 69 37 SE 9 0,0
15.01.2018 16:00:00 0,6 -2,8 44 24 70 38 SE 10 0,0
15.01.2018 15:00:00 0,7 -2,7 47 26 70 38 SSE 11 0,0
15.01.2018 14:00:00 0,8 -2,6 49 26 67 36 SSE 12 0,0

tt = Température de l'air
td = dewpoint
ff = Vitesse du vent
fx = gusts
dd = Direction du vent
vv = visibility
rr = Quantités de précipitations

stations d'obs. à proximité